sensor_id;sensor_type;location;lat;lon;timestamp;P1;durP1;ratioP1;P2;durP2;ratioP2
56269;SDS011;42176;43.240;27.880;2023-12-28T00:01:33;6.82;;;2.60;;
56269;SDS011;42176;43.240;27.880;2023-12-28T00:03:33;1.92;;;1.70;;
56269;SDS011;42176;43.240;27.880;2023-12-28T00:05:34;2.78;;;2.17;;
56269;SDS011;42176;43.240;27.880;2023-12-28T00:07:34;4.60;;;2.57;;
56269;SDS011;42176;43.240;27.880;2023-12-28T00:09:35;4.63;;;2.65;;
56269;SDS011;42176;43.240;27.880;2023-12-28T00:11:36;8.27;;;3.33;;
56269;SDS011;42176;43.240;27.880;2023-12-28T00:13:37;2.65;;;0.82;;
56269;SDS011;42176;43.240;27.880;2023-12-28T00:15:37;5.55;;;2.38;;
56269;SDS011;42176;43.240;27.880;2023-12-28T00:17:38;3.03;;;1.83;;
56269;SDS011;42176;43.240;27.880;2023-12-28T00:19:38;2.63;;;1.63;;
56269;SDS011;42176;43.240;27.880;2023-12-28T00:21:39;4.75;;;3.10;;
56269;SDS011;42176;43.240;27.880;2023-12-28T00:23:40;4.15;;;3.10;;
56269;SDS011;42176;43.240;27.880;2023-12-28T00:25:40;3.97;;;3.03;;
56269;SDS011;42176;43.240;27.880;2023-12-28T00:27:41;5.28;;;3.15;;
56269;SDS011;42176;43.240;27.880;2023-12-28T00:29:42;4.25;;;2.17;;
56269;SDS011;42176;43.240;27.880;2023-12-28T00:31:43;16.57;;;3.00;;
56269;SDS011;42176;43.240;27.880;2023-12-28T00:33:43;5.97;;;3.08;;
56269;SDS011;42176;43.240;27.880;2023-12-28T00:35:44;5.00;;;2.95;;
56269;SDS011;42176;43.240;27.880;2023-12-28T00:37:45;5.22;;;2.60;;
56269;SDS011;42176;43.240;27.880;2023-12-28T00:39:45;4.22;;;2.70;;
56269;SDS011;42176;43.240;27.880;2023-12-28T00:41:47;6.57;;;2.97;;
56269;SDS011;42176;43.240;27.880;2023-12-28T00:43:47;4.00;;;2.38;;
56269;SDS011;42176;43.240;27.880;2023-12-28T00:45:48;6.47;;;3.25;;
56269;SDS011;42176;43.240;27.880;2023-12-28T00:47:48;3.17;;;2.78;;
56269;SDS011;42176;43.240;27.880;2023-12-28T00:49:50;6.82;;;2.22;;
56269;SDS011;42176;43.240;27.880;2023-12-28T00:51:50;10.23;;;3.10;;
56269;SDS011;42176;43.240;27.880;2023-12-28T00:53:51;5.38;;;2.33;;
56269;SDS011;42176;43.240;27.880;2023-12-28T00:55:51;5.00;;;3.00;;
56269;SDS011;42176;43.240;27.880;2023-12-28T00:57:52;4.45;;;3.33;;
56269;SDS011;42176;43.240;27.880;2023-12-28T00:59:53;8.35;;;2.85;;
56269;SDS011;42176;43.240;27.880;2023-12-28T01:01:54;6.93;;;2.17;;
56269;SDS011;42176;43.240;27.880;2023-12-28T01:03:54;4.88;;;2.78;;
56269;SDS011;42176;43.240;27.880;2023-12-28T01:05:55;4.72;;;2.85;;
56269;SDS011;42176;43.240;27.880;2023-12-28T01:07:55;3.10;;;2.22;;
56269;SDS011;42176;43.240;27.880;2023-12-28T01:09:56;3.85;;;2.67;;
56269;SDS011;42176;43.240;27.880;2023-12-28T01:11:56;3.10;;;2.28;;
56269;SDS011;42176;43.240;27.880;2023-12-28T01:13:57;3.90;;;2.58;;
56269;SDS011;42176;43.240;27.880;2023-12-28T01:17:59;4.47;;;3.15;;
56269;SDS011;42176;43.240;27.880;2023-12-28T01:20:00;4.13;;;2.83;;
56269;SDS011;42176;43.240;27.880;2023-12-28T01:22:00;4.30;;;2.13;;
56269;SDS011;42176;43.240;27.880;2023-12-28T01:24:01;4.07;;;2.08;;
56269;SDS011;42176;43.240;27.880;2023-12-28T01:26:02;3.83;;;2.50;;
56269;SDS011;42176;43.240;27.880;2023-12-28T01:28:03;2.97;;;2.60;;
56269;SDS011;42176;43.240;27.880;2023-12-28T01:30:04;3.83;;;2.60;;
56269;SDS011;42176;43.240;27.880;2023-12-28T01:32:06;5.07;;;2.35;;
56269;SDS011;42176;43.240;27.880;2023-12-28T01:34:06;5.15;;;3.15;;
56269;SDS011;42176;43.240;27.880;2023-12-28T01:36:18;5.25;;;2.13;;
56269;SDS011;42176;43.240;27.880;2023-12-28T01:38:19;5.53;;;2.28;;
56269;SDS011;42176;43.240;27.880;2023-12-28T01:40:20;4.18;;;2.90;;
56269;SDS011;42176;43.240;27.880;2023-12-28T01:42:21;5.25;;;2.42;;
56269;SDS011;42176;43.240;27.880;2023-12-28T01:44:21;0.93;;;0.75;;
56269;SDS011;42176;43.240;27.880;2023-12-28T01:46:22;3.95;;;2.35;;
56269;SDS011;42176;43.240;27.880;2023-12-28T01:48:23;3.75;;;2.60;;
56269;SDS011;42176;43.240;27.880;2023-12-28T01:50:24;4.40;;;2.33;;
56269;SDS011;42176;43.240;27.880;2023-12-28T01:52:27;3.22;;;1.70;;
56269;SDS011;42176;43.240;27.880;2023-12-28T01:54:28;5.68;;;2.33;;
56269;SDS011;42176;43.240;27.880;2023-12-28T01:56:30;4.03;;;2.72;;
56269;SDS011;42176;43.240;27.880;2023-12-28T01:58:32;2.47;;;1.83;;
56269;SDS011;42176;43.240;27.880;2023-12-28T02:00:35;7.32;;;2.33;;
56269;SDS011;42176;43.240;27.880;2023-12-28T02:02:38;7.07;;;2.22;;
56269;SDS011;42176;43.240;27.880;2023-12-28T02:04:39;3.08;;;2.17;;
56269;SDS011;42176;43.240;27.880;2023-12-28T02:06:40;5.50;;;2.97;;
56269;SDS011;42176;43.240;27.880;2023-12-28T02:08:41;8.20;;;3.58;;
56269;SDS011;42176;43.240;27.880;2023-12-28T02:10:41;4.88;;;2.55;;
56269;SDS011;42176;43.240;27.880;2023-12-28T02:12:42;4.63;;;2.67;;
56269;SDS011;42176;43.240;27.880;2023-12-28T02:14:43;1.92;;;1.77;;
56269;SDS011;42176;43.240;27.880;2023-12-28T02:17:30;3.70;;;2.43;;
56269;SDS011;42176;43.240;27.880;2023-12-28T02:19:49;4.28;;;2.85;;
56269;SDS011;42176;43.240;27.880;2023-12-28T02:21:54;3.78;;;2.33;;
56269;SDS011;42176;43.240;27.880;2023-12-28T02:23:55;5.28;;;2.58;;
56269;SDS011;42176;43.240;27.880;2023-12-28T02:25:55;5.22;;;3.35;;
56269;SDS011;42176;43.240;27.880;2023-12-28T02:27:56;8.30;;;3.03;;
56269;SDS011;42176;43.240;27.880;2023-12-28T02:29:57;8.15;;;3.05;;
56269;SDS011;42176;43.240;27.880;2023-12-28T02:31:59;3.80;;;2.20;;
56269;SDS011;42176;43.240;27.880;2023-12-28T02:34:08;2.90;;;2.05;;
56269;SDS011;42176;43.240;27.880;2023-12-28T02:36:17;4.32;;;2.42;;
56269;SDS011;42176;43.240;27.880;2023-12-28T02:38:20;2.47;;;1.75;;
56269;SDS011;42176;43.240;27.880;2023-12-28T02:40:22;5.75;;;3.15;;
56269;SDS011;42176;43.240;27.880;2023-12-28T02:42:25;4.85;;;2.95;;
56269;SDS011;42176;43.240;27.880;2023-12-28T02:44:25;2.63;;;1.88;;
56269;SDS011;42176;43.240;27.880;2023-12-28T02:46:26;3.15;;;2.20;;
56269;SDS011;42176;43.240;27.880;2023-12-28T02:48:27;8.55;;;2.97;;
56269;SDS011;42176;43.240;27.880;2023-12-28T02:50:27;5.43;;;3.08;;
56269;SDS011;42176;43.240;27.880;2023-12-28T02:52:30;4.40;;;3.15;;
56269;SDS011;42176;43.240;27.880;2023-12-28T02:54:30;5.78;;;2.25;;
56269;SDS011;42176;43.240;27.880;2023-12-28T02:56:31;6.45;;;2.88;;
56269;SDS011;42176;43.240;27.880;2023-12-28T02:58:33;2.47;;;2.25;;
56269;SDS011;42176;43.240;27.880;2023-12-28T03:00:33;5.97;;;3.28;;
56269;SDS011;42176;43.240;27.880;2023-12-28T03:02:37;4.27;;;2.90;;
56269;SDS011;42176;43.240;27.880;2023-12-28T03:04:38;4.40;;;3.05;;
56269;SDS011;42176;43.240;27.880;2023-12-28T03:06:38;13.18;;;3.42;;
56269;SDS011;42176;43.240;27.880;2023-12-28T03:08:40;6.30;;;2.08;;
56269;SDS011;42176;43.240;27.880;2023-12-28T03:10:42;3.92;;;2.40;;
56269;SDS011;42176;43.240;27.880;2023-12-28T03:12:42;5.00;;;3.20;;
56269;SDS011;42176;43.240;27.880;2023-12-28T03:14:43;10.25;;;3.70;;
56269;SDS011;42176;43.240;27.880;2023-12-28T03:16:44;2.42;;;1.98;;
56269;SDS011;42176;43.240;27.880;2023-12-28T03:18:45;3.22;;;1.83;;
56269;SDS011;42176;43.240;27.880;2023-12-28T03:20:45;4.70;;;1.88;;
56269;SDS011;42176;43.240;27.880;2023-12-28T03:22:46;6.63;;;2.78;;
56269;SDS011;42176;43.240;27.880;2023-12-28T03:24:47;4.70;;;3.05;;
56269;SDS011;42176;43.240;27.880;2023-12-28T03:26:47;3.55;;;2.50;;
56269;SDS011;42176;43.240;27.880;2023-12-28T03:28:48;4.65;;;2.53;;
56269;SDS011;42176;43.240;27.880;2023-12-28T03:30:48;3.70;;;2.45;;
56269;SDS011;42176;43.240;27.880;2023-12-28T03:32:49;5.03;;;3.35;;
56269;SDS011;42176;43.240;27.880;2023-12-28T03:34:49;4.60;;;3.33;;
56269;SDS011;42176;43.240;27.880;2023-12-28T03:36:50;6.57;;;2.90;;
56269;SDS011;42176;43.240;27.880;2023-12-28T03:38:50;4.35;;;2.60;;
56269;SDS011;42176;43.240;27.880;2023-12-28T03:40:51;3.78;;;2.33;;
56269;SDS011;42176;43.240;27.880;2023-12-28T03:42:52;3.50;;;2.03;;
56269;SDS011;42176;43.240;27.880;2023-12-28T03:44:52;3.72;;;2.78;;
56269;SDS011;42176;43.240;27.880;2023-12-28T03:46:53;5.70;;;2.93;;
56269;SDS011;42176;43.240;27.880;2023-12-28T03:48:54;3.83;;;2.30;;
56269;SDS011;42176;43.240;27.880;2023-12-28T03:50:54;4.07;;;2.15;;
56269;SDS011;42176;43.240;27.880;2023-12-28T03:52:55;3.78;;;1.67;;
56269;SDS011;42176;43.240;27.880;2023-12-28T03:54:56;6.68;;;3.95;;
56269;SDS011;42176;43.240;27.880;2023-12-28T03:56:56;4.65;;;2.33;;
56269;SDS011;42176;43.240;27.880;2023-12-28T03:58:57;5.67;;;3.00;;
56269;SDS011;42176;43.240;27.880;2023-12-28T04:00:58;3.03;;;2.15;;
56269;SDS011;42176;43.240;27.880;2023-12-28T04:02:59;6.75;;;2.03;;
56269;SDS011;42176;43.240;27.880;2023-12-28T04:05:00;6.53;;;3.15;;
56269;SDS011;42176;43.240;27.880;2023-12-28T04:07:00;9.45;;;3.75;;
56269;SDS011;42176;43.240;27.880;2023-12-28T04:09:01;5.25;;;3.08;;
56269;SDS011;42176;43.240;27.880;2023-12-28T04:11:01;7.00;;;3.72;;
56269;SDS011;42176;43.240;27.880;2023-12-28T04:13:02;5.30;;;3.08;;
56269;SDS011;42176;43.240;27.880;2023-12-28T04:15:03;3.95;;;2.53;;
56269;SDS011;42176;43.240;27.880;2023-12-28T04:17:04;3.70;;;2.33;;
56269;SDS011;42176;43.240;27.880;2023-12-28T04:19:04;6.15;;;2.70;;
56269;SDS011;42176;43.240;27.880;2023-12-28T04:21:07;5.53;;;2.63;;
56269;SDS011;42176;43.240;27.880;2023-12-28T04:23:09;4.72;;;2.80;;
56269;SDS011;42176;43.240;27.880;2023-12-28T04:25:10;10.18;;;3.70;;
56269;SDS011;42176;43.240;27.880;2023-12-28T04:27:10;7.55;;;3.97;;
56269;SDS011;42176;43.240;27.880;2023-12-28T04:29:12;4.75;;;3.00;;
56269;SDS011;42176;43.240;27.880;2023-12-28T04:31:13;6.07;;;3.00;;
56269;SDS011;42176;43.240;27.880;2023-12-28T04:33:16;6.47;;;2.97;;
56269;SDS011;42176;43.240;27.880;2023-12-28T04:35:17;5.57;;;2.80;;
56269;SDS011;42176;43.240;27.880;2023-12-28T04:37:17;5.68;;;3.72;;
56269;SDS011;42176;43.240;27.880;2023-12-28T04:39:18;7.97;;;3.83;;
56269;SDS011;42176;43.240;27.880;2023-12-28T04:41:18;11.10;;;5.20;;
56269;SDS011;42176;43.240;27.880;2023-12-28T04:43:19;5.85;;;3.78;;
56269;SDS011;42176;43.240;27.880;2023-12-28T04:45:20;5.00;;;3.08;;
56269;SDS011;42176;43.240;27.880;2023-12-28T04:47:22;9.00;;;4.10;;
56269;SDS011;42176;43.240;27.880;2023-12-28T04:49:23;9.52;;;4.85;;
56269;SDS011;42176;43.240;27.880;2023-12-28T04:51:23;10.48;;;6.60;;
56269;SDS011;42176;43.240;27.880;2023-12-28T04:53:24;10.07;;;4.97;;
56269;SDS011;42176;43.240;27.880;2023-12-28T04:55:24;14.63;;;5.25;;
56269;SDS011;42176;43.240;27.880;2023-12-28T04:57:25;9.18;;;3.22;;
56269;SDS011;42176;43.240;27.880;2023-12-28T04:59:28;2.80;;;2.55;;
56269;SDS011;42176;43.240;27.880;2023-12-28T05:01:28;4.38;;;2.95;;
56269;SDS011;42176;43.240;27.880;2023-12-28T05:03:31;6.63;;;3.75;;
56269;SDS011;42176;43.240;27.880;2023-12-28T05:05:32;9.82;;;3.22;;
56269;SDS011;42176;43.240;27.880;2023-12-28T05:07:33;8.38;;;4.55;;
56269;SDS011;42176;43.240;27.880;2023-12-28T05:09:33;8.32;;;3.70;;
56269;SDS011;42176;43.240;27.880;2023-12-28T05:11:34;7.38;;;3.67;;
56269;SDS011;42176;43.240;27.880;2023-12-28T05:13:34;6.70;;;3.85;;
56269;SDS011;42176;43.240;27.880;2023-12-28T05:15:35;7.90;;;4.63;;
56269;SDS011;42176;43.240;27.880;2023-12-28T05:17:36;11.65;;;4.20;;
56269;SDS011;42176;43.240;27.880;2023-12-28T05:19:36;5.68;;;3.22;;
56269;SDS011;42176;43.240;27.880;2023-12-28T05:21:37;5.75;;;3.45;;
56269;SDS011;42176;43.240;27.880;2023-12-28T05:23:37;5.90;;;4.30;;
56269;SDS011;42176;43.240;27.880;2023-12-28T05:25:38;10.88;;;6.18;;
56269;SDS011;42176;43.240;27.880;2023-12-28T05:27:39;12.30;;;5.43;;
56269;SDS011;42176;43.240;27.880;2023-12-28T05:29:40;9.75;;;5.00;;
56269;SDS011;42176;43.240;27.880;2023-12-28T05:31:40;6.00;;;3.35;;
56269;SDS011;42176;43.240;27.880;2023-12-28T05:33:41;6.85;;;4.20;;
56269;SDS011;42176;43.240;27.880;2023-12-28T05:35:41;11.18;;;4.63;;
56269;SDS011;42176;43.240;27.880;2023-12-28T05:37:42;18.42;;;5.38;;
56269;SDS011;42176;43.240;27.880;2023-12-28T05:39:42;8.60;;;4.53;;
56269;SDS011;42176;43.240;27.880;2023-12-28T05:41:43;9.65;;;4.90;;
56269;SDS011;42176;43.240;27.880;2023-12-28T05:43:45;10.77;;;6.13;;
56269;SDS011;42176;43.240;27.880;2023-12-28T05:45:45;8.82;;;5.00;;
56269;SDS011;42176;43.240;27.880;2023-12-28T05:47:46;11.98;;;5.30;;
56269;SDS011;42176;43.240;27.880;2023-12-28T05:49:46;6.07;;;3.97;;
56269;SDS011;42176;43.240;27.880;2023-12-28T05:51:47;13.70;;;6.65;;
56269;SDS011;42176;43.240;27.880;2023-12-28T05:53:47;20.02;;;8.98;;
56269;SDS011;42176;43.240;27.880;2023-12-28T05:55:48;18.85;;;7.00;;
56269;SDS011;42176;43.240;27.880;2023-12-28T05:57:48;16.40;;;5.97;;
56269;SDS011;42176;43.240;27.880;2023-12-28T05:59:49;12.02;;;6.68;;
56269;SDS011;42176;43.240;27.880;2023-12-28T06:01:49;11.63;;;5.72;;
56269;SDS011;42176;43.240;27.880;2023-12-28T06:03:50;14.88;;;6.82;;
56269;SDS011;42176;43.240;27.880;2023-12-28T06:05:52;12.02;;;6.55;;
56269;SDS011;42176;43.240;27.880;2023-12-28T06:07:53;13.25;;;5.63;;
56269;SDS011;42176;43.240;27.880;2023-12-28T06:09:54;12.80;;;6.78;;
56269;SDS011;42176;43.240;27.880;2023-12-28T06:11:54;8.48;;;6.53;;
56269;SDS011;42176;43.240;27.880;2023-12-28T06:13:55;11.25;;;7.28;;
56269;SDS011;42176;43.240;27.880;2023-12-28T06:15:55;19.00;;;7.40;;
56269;SDS011;42176;43.240;27.880;2023-12-28T06:17:56;18.77;;;7.03;;
56269;SDS011;42176;43.240;27.880;2023-12-28T06:19:57;7.80;;;4.28;;
56269;SDS011;42176;43.240;27.880;2023-12-28T06:21:57;14.67;;;6.63;;
56269;SDS011;42176;43.240;27.880;2023-12-28T06:23:58;11.37;;;6.37;;
56269;SDS011;42176;43.240;27.880;2023-12-28T06:26:03;9.48;;;5.10;;
56269;SDS011;42176;43.240;27.880;2023-12-28T06:28:05;13.77;;;5.75;;
56269;SDS011;42176;43.240;27.880;2023-12-28T06:30:06;14.93;;;4.53;;
56269;SDS011;42176;43.240;27.880;2023-12-28T06:32:07;10.00;;;5.72;;
56269;SDS011;42176;43.240;27.880;2023-12-28T06:34:07;8.70;;;5.23;;
56269;SDS011;42176;43.240;27.880;2023-12-28T06:36:08;10.45;;;4.95;;
56269;SDS011;42176;43.240;27.880;2023-12-28T06:38:09;90.03;;;34.73;;
56269;SDS011;42176;43.240;27.880;2023-12-28T06:40:09;32.22;;;15.80;;
56269;SDS011;42176;43.240;27.880;2023-12-28T06:42:10;19.20;;;8.77;;
56269;SDS011;42176;43.240;27.880;2023-12-28T06:44:11;13.87;;;7.47;;
56269;SDS011;42176;43.240;27.880;2023-12-28T06:46:13;10.43;;;5.28;;
56269;SDS011;42176;43.240;27.880;2023-12-28T06:48:14;15.83;;;5.63;;
56269;SDS011;42176;43.240;27.880;2023-12-28T06:50:15;11.03;;;6.03;;
56269;SDS011;42176;43.240;27.880;2023-12-28T06:52:15;10.17;;;5.33;;
56269;SDS011;42176;43.240;27.880;2023-12-28T06:54:16;9.07;;;4.93;;
56269;SDS011;42176;43.240;27.880;2023-12-28T06:56:17;10.50;;;5.63;;
56269;SDS011;42176;43.240;27.880;2023-12-28T06:58:17;17.67;;;8.80;;
56269;SDS011;42176;43.240;27.880;2023-12-28T07:00:18;16.33;;;7.07;;
56269;SDS011;42176;43.240;27.880;2023-12-28T07:02:19;9.63;;;5.27;;
56269;SDS011;42176;43.240;27.880;2023-12-28T07:04:19;15.73;;;7.43;;
56269;SDS011;42176;43.240;27.880;2023-12-28T07:06:21;14.48;;;6.55;;
56269;SDS011;42176;43.240;27.880;2023-12-28T07:08:21;10.67;;;5.97;;
56269;SDS011;42176;43.240;27.880;2023-12-28T07:10:22;20.00;;;6.47;;
56269;SDS011;42176;43.240;27.880;2023-12-28T07:12:23;7.17;;;5.10;;
56269;SDS011;42176;43.240;27.880;2023-12-28T07:14:24;23.23;;;8.52;;
56269;SDS011;42176;43.240;27.880;2023-12-28T07:16:24;13.63;;;7.30;;
56269;SDS011;42176;43.240;27.880;2023-12-28T07:18:26;26.27;;;8.93;;
56269;SDS011;42176;43.240;27.880;2023-12-28T07:20:27;21.83;;;9.63;;
56269;SDS011;42176;43.240;27.880;2023-12-28T07:22:27;25.70;;;10.30;;
56269;SDS011;42176;43.240;27.880;2023-12-28T07:24:28;24.27;;;11.20;;
56269;SDS011;42176;43.240;27.880;2023-12-28T07:26:28;22.23;;;10.97;;
56269;SDS011;42176;43.240;27.880;2023-12-28T07:28:29;20.43;;;11.77;;
56269;SDS011;42176;43.240;27.880;2023-12-28T07:30:30;19.37;;;8.80;;
56269;SDS011;42176;43.240;27.880;2023-12-28T07:32:30;21.03;;;11.97;;
56269;SDS011;42176;43.240;27.880;2023-12-28T07:34:31;39.57;;;12.53;;
56269;SDS011;42176;43.240;27.880;2023-12-28T07:36:32;26.27;;;10.67;;
56269;SDS011;42176;43.240;27.880;2023-12-28T07:38:32;30.13;;;13.80;;
56269;SDS011;42176;43.240;27.880;2023-12-28T07:40:33;35.83;;;20.03;;
56269;SDS011;42176;43.240;27.880;2023-12-28T07:42:33;34.73;;;17.83;;
56269;SDS011;42176;43.240;27.880;2023-12-28T07:44:34;30.57;;;14.80;;
56269;SDS011;42176;43.240;27.880;2023-12-28T07:46:35;14.10;;;7.72;;
56269;SDS011;42176;43.240;27.880;2023-12-28T07:48:36;13.40;;;8.53;;
56269;SDS011;42176;43.240;27.880;2023-12-28T07:50:36;18.03;;;9.67;;
56269;SDS011;42176;43.240;27.880;2023-12-28T07:52:37;20.00;;;9.63;;
56269;SDS011;42176;43.240;27.880;2023-12-28T07:54:37;12.23;;;5.10;;
56269;SDS011;42176;43.240;27.880;2023-12-28T07:56:38;12.63;;;7.83;;
56269;SDS011;42176;43.240;27.880;2023-12-28T07:58:39;26.23;;;8.97;;
56269;SDS011;42176;43.240;27.880;2023-12-28T08:00:39;19.40;;;8.73;;
56269;SDS011;42176;43.240;27.880;2023-12-28T08:02:40;18.93;;;9.60;;
56269;SDS011;42176;43.240;27.880;2023-12-28T08:04:40;13.07;;;8.63;;
56269;SDS011;42176;43.240;27.880;2023-12-28T08:06:41;18.07;;;9.30;;
56269;SDS011;42176;43.240;27.880;2023-12-28T08:08:42;20.40;;;10.90;;
56269;SDS011;42176;43.240;27.880;2023-12-28T08:10:42;21.60;;;10.43;;
56269;SDS011;42176;43.240;27.880;2023-12-28T08:12:43;22.53;;;10.83;;
56269;SDS011;42176;43.240;27.880;2023-12-28T08:14:43;20.37;;;10.40;;
56269;SDS011;42176;43.240;27.880;2023-12-28T08:16:44;23.27;;;10.90;;
56269;SDS011;42176;43.240;27.880;2023-12-28T08:18:45;21.37;;;10.47;;
56269;SDS011;42176;43.240;27.880;2023-12-28T08:20:45;20.03;;;9.97;;
56269;SDS011;42176;43.240;27.880;2023-12-28T08:22:46;22.30;;;10.80;;
56269;SDS011;42176;43.240;27.880;2023-12-28T08:24:47;26.20;;;11.27;;
56269;SDS011;42176;43.240;27.880;2023-12-28T08:26:48;20.37;;;10.77;;
56269;SDS011;42176;43.240;27.880;2023-12-28T08:28:48;18.90;;;8.70;;
56269;SDS011;42176;43.240;27.880;2023-12-28T08:30:49;18.03;;;8.63;;
56269;SDS011;42176;43.240;27.880;2023-12-28T08:32:49;22.23;;;11.50;;
56269;SDS011;42176;43.240;27.880;2023-12-28T08:34:50;21.57;;;10.80;;
56269;SDS011;42176;43.240;27.880;2023-12-28T08:36:50;12.20;;;7.07;;
56269;SDS011;42176;43.240;27.880;2023-12-28T08:38:52;14.10;;;7.80;;
56269;SDS011;42176;43.240;27.880;2023-12-28T08:40:53;22.80;;;9.97;;
56269;SDS011;42176;43.240;27.880;2023-12-28T08:42:53;20.73;;;10.80;;
56269;SDS011;42176;43.240;27.880;2023-12-28T08:44:54;16.13;;;9.53;;
56269;SDS011;42176;43.240;27.880;2023-12-28T08:46:54;17.87;;;7.83;;
56269;SDS011;42176;43.240;27.880;2023-12-28T08:48:55;20.20;;;10.03;;
56269;SDS011;42176;43.240;27.880;2023-12-28T08:50:55;12.13;;;8.27;;
56269;SDS011;42176;43.240;27.880;2023-12-28T08:52:56;20.40;;;8.93;;
56269;SDS011;42176;43.240;27.880;2023-12-28T08:54:56;30.17;;;14.93;;
56269;SDS011;42176;43.240;27.880;2023-12-28T08:56:57;22.77;;;11.20;;
56269;SDS011;42176;43.240;27.880;2023-12-28T08:58:58;22.43;;;9.37;;
56269;SDS011;42176;43.240;27.880;2023-12-28T09:00:59;18.75;;;9.10;;
56269;SDS011;42176;43.240;27.880;2023-12-28T09:03:00;17.97;;;8.93;;
56269;SDS011;42176;43.240;27.880;2023-12-28T09:05:00;19.67;;;10.03;;
56269;SDS011;42176;43.240;27.880;2023-12-28T09:07:01;20.87;;;10.23;;
56269;SDS011;42176;43.240;27.880;2023-12-28T09:09:02;17.70;;;8.82;;
56269;SDS011;42176;43.240;27.880;2023-12-28T09:11:04;26.40;;;9.80;;
56269;SDS011;42176;43.240;27.880;2023-12-28T09:13:04;13.93;;;9.37;;
56269;SDS011;42176;43.240;27.880;2023-12-28T09:15:06;14.23;;;7.30;;
56269;SDS011;42176;43.240;27.880;2023-12-28T09:17:07;14.07;;;7.97;;
56269;SDS011;42176;43.240;27.880;2023-12-28T09:19:07;16.60;;;9.00;;
56269;SDS011;42176;43.240;27.880;2023-12-28T09:21:08;16.87;;;9.20;;
56269;SDS011;42176;43.240;27.880;2023-12-28T09:23:10;18.17;;;10.15;;
56269;SDS011;42176;43.240;27.880;2023-12-28T09:25:11;14.40;;;8.77;;
56269;SDS011;42176;43.240;27.880;2023-12-28T09:27:11;16.57;;;8.30;;
56269;SDS011;42176;43.240;27.880;2023-12-28T09:29:12;14.60;;;8.00;;
56269;SDS011;42176;43.240;27.880;2023-12-28T09:31:12;20.97;;;9.13;;
56269;SDS011;42176;43.240;27.880;2023-12-28T09:33:13;18.67;;;9.67;;
56269;SDS011;42176;43.240;27.880;2023-12-28T09:35:15;21.50;;;10.13;;
56269;SDS011;42176;43.240;27.880;2023-12-28T09:37:16;27.93;;;10.70;;
56269;SDS011;42176;43.240;27.880;2023-12-28T09:39:16;19.63;;;9.73;;
56269;SDS011;42176;43.240;27.880;2023-12-28T09:41:17;21.37;;;10.57;;
56269;SDS011;42176;43.240;27.880;2023-12-28T09:43:22;20.08;;;9.63;;
56269;SDS011;42176;43.240;27.880;2023-12-28T09:45:26;14.38;;;8.70;;
56269;SDS011;42176;43.240;27.880;2023-12-28T09:47:27;17.60;;;8.20;;
56269;SDS011;42176;43.240;27.880;2023-12-28T09:49:28;16.10;;;8.10;;
56269;SDS011;42176;43.240;27.880;2023-12-28T09:51:32;22.30;;;9.00;;
56269;SDS011;42176;43.240;27.880;2023-12-28T09:53:32;12.90;;;9.25;;
56269;SDS011;42176;43.240;27.880;2023-12-28T09:55:33;23.43;;;13.03;;
56269;SDS011;42176;43.240;27.880;2023-12-28T09:57:34;22.77;;;10.03;;
56269;SDS011;42176;43.240;27.880;2023-12-28T09:59:35;17.65;;;7.90;;
56269;SDS011;42176;43.240;27.880;2023-12-28T10:01:38;14.50;;;7.80;;
56269;SDS011;42176;43.240;27.880;2023-12-28T10:03:39;18.88;;;8.55;;
56269;SDS011;42176;43.240;27.880;2023-12-28T10:05:40;13.60;;;7.27;;
56269;SDS011;42176;43.240;27.880;2023-12-28T10:07:43;14.70;;;7.03;;
56269;SDS011;42176;43.240;27.880;2023-12-28T10:09:44;15.13;;;7.30;;
56269;SDS011;42176;43.240;27.880;2023-12-28T10:11:45;12.10;;;6.17;;
56269;SDS011;42176;43.240;27.880;2023-12-28T10:13:45;14.07;;;7.90;;
56269;SDS011;42176;43.240;27.880;2023-12-28T10:15:46;10.10;;;6.70;;
56269;SDS011;42176;43.240;27.880;2023-12-28T10:17:47;17.58;;;7.53;;
56269;SDS011;42176;43.240;27.880;2023-12-28T10:19:48;14.13;;;6.73;;
56269;SDS011;42176;43.240;27.880;2023-12-28T10:21:48;13.93;;;7.57;;
56269;SDS011;42176;43.240;27.880;2023-12-28T10:23:49;16.47;;;7.07;;
56269;SDS011;42176;43.240;27.880;2023-12-28T10:25:50;10.93;;;6.40;;
56269;SDS011;42176;43.240;27.880;2023-12-28T10:27:53;13.15;;;6.10;;
56269;SDS011;42176;43.240;27.880;2023-12-28T10:29:55;11.75;;;6.35;;
56269;SDS011;42176;43.240;27.880;2023-12-28T10:31:56;9.63;;;6.00;;
56269;SDS011;42176;43.240;27.880;2023-12-28T10:34:00;13.50;;;6.50;;
56269;SDS011;42176;43.240;27.880;2023-12-28T10:36:07;14.05;;;6.53;;
56269;SDS011;42176;43.240;27.880;2023-12-28T10:38:08;11.85;;;7.07;;
56269;SDS011;42176;43.240;27.880;2023-12-28T10:40:14;16.00;;;7.57;;
56269;SDS011;42176;43.240;27.880;2023-12-28T10:44:27;14.02;;;6.30;;
56269;SDS011;42176;43.240;27.880;2023-12-28T10:46:32;17.33;;;6.35;;
56269;SDS011;42176;43.240;27.880;2023-12-28T10:50:43;7.97;;;4.90;;
56269;SDS011;42176;43.240;27.880;2023-12-28T10:52:50;8.82;;;5.05;;
56269;SDS011;42176;43.240;27.880;2023-12-28T10:57:29;11.43;;;5.18;;
56269;SDS011;42176;43.240;27.880;2023-12-28T11:01:40;20.00;;;5.57;;
56269;SDS011;42176;43.240;27.880;2023-12-28T11:03:42;12.27;;;6.07;;
56269;SDS011;42176;43.240;27.880;2023-12-28T11:05:48;16.08;;;6.25;;
56269;SDS011;42176;43.240;27.880;2023-12-28T11:07:50;9.82;;;5.30;;
56269;SDS011;42176;43.240;27.880;2023-12-28T11:09:56;10.80;;;5.75;;
56269;SDS011;42176;43.240;27.880;2023-12-28T11:11:57;9.67;;;5.63;;
56269;SDS011;42176;43.240;27.880;2023-12-28T11:14:00;9.52;;;5.47;;
56269;SDS011;42176;43.240;27.880;2023-12-28T11:16:02;11.57;;;5.60;;
56269;SDS011;42176;43.240;27.880;2023-12-28T11:18:03;17.80;;;7.00;;
56269;SDS011;42176;43.240;27.880;2023-12-28T11:20:04;10.00;;;4.53;;
56269;SDS011;42176;43.240;27.880;2023-12-28T11:22:05;11.02;;;5.00;;
56269;SDS011;42176;43.240;27.880;2023-12-28T11:24:07;6.43;;;3.88;;
56269;SDS011;42176;43.240;27.880;2023-12-28T11:26:29;9.02;;;4.75;;
56269;SDS011;42176;43.240;27.880;2023-12-28T11:28:29;7.80;;;4.95;;
56269;SDS011;42176;43.240;27.880;2023-12-28T11:30:30;9.45;;;4.28;;
56269;SDS011;42176;43.240;27.880;2023-12-28T11:32:35;12.17;;;4.63;;
56269;SDS011;42176;43.240;27.880;2023-12-28T11:34:36;7.63;;;4.20;;
56269;SDS011;42176;43.240;27.880;2023-12-28T11:36:38;8.77;;;3.70;;
56269;SDS011;42176;43.240;27.880;2023-12-28T11:38:45;12.48;;;4.63;;
56269;SDS011;42176;43.240;27.880;2023-12-28T11:40:47;8.57;;;4.55;;
56269;SDS011;42176;43.240;27.880;2023-12-28T11:42:51;12.32;;;5.90;;
56269;SDS011;42176;43.240;27.880;2023-12-28T11:44:54;8.02;;;4.90;;
56269;SDS011;42176;43.240;27.880;2023-12-28T11:46:55;7.75;;;4.55;;
56269;SDS011;42176;43.240;27.880;2023-12-28T11:49:06;8.55;;;4.78;;
56269;SDS011;42176;43.240;27.880;2023-12-28T11:51:07;11.27;;;5.07;;
56269;SDS011;42176;43.240;27.880;2023-12-28T11:53:08;12.20;;;4.80;;
56269;SDS011;42176;43.240;27.880;2023-12-28T11:55:08;12.63;;;4.33;;
56269;SDS011;42176;43.240;27.880;2023-12-28T11:57:09;10.20;;;3.90;;
56269;SDS011;42176;43.240;27.880;2023-12-28T11:59:10;10.17;;;4.83;;
56269;SDS011;42176;43.240;27.880;2023-12-28T12:01:10;7.63;;;5.10;;
56269;SDS011;42176;43.240;27.880;2023-12-28T12:03:11;8.87;;;3.87;;
56269;SDS011;42176;43.240;27.880;2023-12-28T12:05:14;8.98;;;4.57;;